Hauptseite
METAR-TAF:

METAR-TAF

Flughäfen :

Fliegerhorst Faßberg

Faßberg, Deutschland

Breite: 52-55N, Länge: 010-11E, Höhe: 75 m

Beobachtung

Neuester Wetterbericht von vor 42 Minuten, um 05:20 UTC
Wind 3 kt aus Ost
Temperatur 14°C
Luftfeuchtigkeit 88%
Luftdruck 996 hPa
Sichtweite 10 km oder mehr
Leicht bewölkt in der Höhe von 8000 ft
Aufgelockert bewölkt in der Höhe von 16000 ft
Durchbrochene Bewölkung in der Höhe von 30000 ft

METAR: ETHS 040520Z 10003KT 9999 FEW080 SCT160 BKN300 14/12 Q0996 BLU+

Zeit: 08:02 (06:02 UTC)

Prognose

Neuester Wetterbericht von vor 7 Stunden und 42 Minuten, um 22:20 UTC
Gültige Prognose vom 03 um 23 UTC bis 04 um 08 UTC
Wind 5 kt aus Ost/Nordost
Sichtweite 10 km oder mehr
Aufgelockert bewölkt in der Höhe von 5000 ft
Durchbrochene Bewölkung in der Höhe von 8000 ft

TAF: ETHS 032220Z 0323/0408 06005KT 9999 NSW SCT050 BKN080

Wetterbeobachtungen und Prognosen von mehr als 4000 Flughäfen (METAR und TAF Bericht).

Die verfügbaren Stationen werden durch gelbe und rote Markierungen auf der Karte dargestellt.

Führen Sie die Maus auf sie, um den Namen der Station zu sehen.

Darauf klicken, um die Beobachtung von Wetterbeobachtungen und Prognosen zu sehen.

Um die Karte zu ändern : klicken Sie auf den grünen Tasten mit einem schwarzen Kreuz Zum Vergrößern, auf den grünen Button mit einem Gedankenstrich zu verkleinern, oder auf die grünen Pfeile für benachbarte Karten.


METAR-TAF: